This is the latest recevied weather packets stored in our database for station/object OE3EMC-13. If no packets are shown the sender has not sent any weather packets the latest 1 day(s).
| Time | Temp. | Humidity | Pressure | Rain* | Wind** | Luminosity | Snow |
|---|---|---|---|---|---|---|---|
| 1777975393 | 26.11° C | 34% | 1100 hPa | 0 mm | 0.89 m/s, 135° | - | - |
| 1777974791 | 25.56° C | 32% | 1100 hPa | 0 mm | 1.34 m/s, 90° | - | - |
| 1777974192 | 25.56° C | 32% | 1100 hPa | 0 mm | 1.34 m/s, 90° | - | - |
| 1777973592 | 24.44° C | 35% | 1100 hPa | 0 mm | 0.89 m/s, 202° | - | - |
| 1777972991 | 24.44° C | 35% | 1100 hPa | 0 mm | 0.89 m/s, 202° | - | - |
| 1777972391 | 23.89° C | 37% | 1100 hPa | 0 mm | 1.34 m/s, 135° | - | - |
| 1777971791 | 23.89° C | 37% | 1100 hPa | 0 mm | 1.34 m/s, 135° | - | - |
| 1777971191 | 22.78° C | 36% | 1100 hPa | 0 mm | 0.89 m/s, 202° | - | - |
| 1777970591 | 22.78° C | 36% | 1100 hPa | 0 mm | 0.89 m/s, 202° | - | - |
| 1777969990 | 21.11° C | 40% | 1100 hPa | 0 mm | 0.89 m/s, 202° | - | - |
| 1777969390 | 21.11° C | 40% | 1100 hPa | 0 mm | 0.89 m/s, 202° | - | - |
| 1777968791 | 19.44° C | 46% | 1100 hPa | 0 mm | 0.89 m/s, 360° | - | - |
| 1777968191 | 19.44° C | 46% | 1100 hPa | 0 mm | 0.89 m/s, 360° | - | - |
| 1777967590 | 18.89° C | 51% | 1100 hPa | 0 mm | 0.45 m/s, 360° | - | - |
| 1777966990 | 18.89° C | 51% | 1100 hPa | 0 mm | 0.45 m/s, 360° | - | - |
| 1777966389 | 17.78° C | 53% | 1100 hPa | 0 mm | 0.89 m/s, 315° | - | - |
| 1777965789 | 17.78° C | 53% | 1100 hPa | 0 mm | 0.89 m/s, 315° | - | - |
| 1777965190 | 17.22° C | 56% | 1100 hPa | 0 mm | 0.89 m/s, 90° | - | - |
| 1777964594 | 17.22° C | 56% | 1100 hPa | 0 mm | 0.89 m/s, 90° | - | - |
| 1777963995 | 16.67° C | 60% | 1100 hPa | 0 mm | 0.89 m/s, 67° | - | - |
| 1777963395 | 16.67° C | 60% | 1100 hPa | 0 mm | 0.89 m/s, 67° | - | - |
| 1777962795 | 16.11° C | 60% | 1100 hPa | 0 mm | 0.45 m/s, 360° | - | - |
| 1777962193 | 16.11° C | 60% | 1100 hPa | 0 mm | 0.45 m/s, 360° | - | - |
| 1777961594 | 15° C | 64% | 1100 hPa | 0 mm | 0.89 m/s, 337° | - | - |
| 1777960994 | 15° C | 64% | 1100 hPa | 0 mm | 0.89 m/s, 337° | - | - |
* Rain latest hour (hover to see other rain measurements)
** Current wind speed in m/s (hover to see current wind gust speed)